Time;durP1;ratioP1;P1;durP2;ratioP2;P2;SDS_P1;SDS_P2;PMS_P1;PMS_P2;Temp;Humidity;BMP_temperature;BMP_pressure;BME280_temperature;BME280_humidity;BME280_pressure;Samples;Min_cycle;Max_cycle;Signal;HPM_P1;HPM_P2
2021/03/17 00:00:47;;;;;;;33.93;16.03;;;3.10;99.90;;;;;;5016074;28;20713;-87
2021/03/17 00:03:13;;;;;;;26.80;14.00;;;2.60;99.90;;;;;;4998503;28;20275;-87
2021/03/17 00:05:40;;;;;;;25.70;14.10;;;2.50;99.90;;;;;;5016202;28;20214;-86
2021/03/17 00:08:06;;;;;;;30.63;15.40;;;2.40;99.90;;;;;;5016170;28;20264;-85
2021/03/17 00:10:35;;;;;;;30.47;15.33;;;2.40;99.90;;;;;;5015598;28;20200;-86
2021/03/17 00:13:02;;;;;;;30.43;15.17;;;2.50;99.90;;;;;;5015008;28;20182;-89
2021/03/17 00:15:37;;;;;;;27.47;14.07;;;2.40;99.90;;;;;;5015817;28;20173;-88
2021/03/17 00:18:03;;;;;;;29.63;14.70;;;3.50;99.90;;;;;;5015968;28;20173;-87
2021/03/17 00:20:30;;;;;;;29.40;13.73;;;2.30;99.90;;;;;;5014519;28;20544;-86
2021/03/17 00:22:57;;;;;;;29.23;14.83;;;3.20;99.90;;;;;;5014466;28;20668;-87
2021/03/17 00:25:27;;;;;;;28.57;14.77;;;2.30;99.90;;;;;;5015767;28;20178;-87
2021/03/17 00:27:52;;;;;;;27.80;14.80;;;2.30;99.90;;;;;;5015541;28;20161;-87
2021/03/17 00:30:19;;;;;;;27.27;15.03;;;2.30;99.90;;;;;;5014264;28;20638;-86
2021/03/17 00:32:44;;;;;;;29.03;14.53;;;2.30;99.90;;;;;;5014180;28;20668;-89
2021/03/17 00:35:10;;;;;;;28.50;13.63;;;2.30;99.90;;;;;;5015738;28;20256;-88
2021/03/17 00:37:36;;;;;;;32.23;16.70;;;2.20;99.90;;;;;;5014188;28;20182;-88
2021/03/17 00:40:03;;;;;;;30.73;15.50;;;2.30;99.90;;;;;;5015671;28;20646;-88
2021/03/17 00:42:29;;;;;;;30.77;16.70;;;2.30;99.90;;;;;;5014252;28;20211;-86
2021/03/17 00:44:54;;;;;;;28.80;15.47;;;2.30;99.90;;;;;;5014171;28;20193;-86
2021/03/17 00:47:20;;;;;;;31.90;15.50;;;2.30;99.90;;;;;;4997887;28;20189;-86
2021/03/17 00:49:46;;;;;;;29.90;15.83;;;2.50;99.90;;;;;;5015094;28;20177;-86
2021/03/17 00:52:13;;;;;;;28.50;15.67;;;2.70;99.90;;;;;;5015362;28;20192;-87
2021/03/17 00:54:38;;;;;;;30.00;16.07;;;2.30;99.90;;;;;;5013858;28;20189;-87
2021/03/17 00:57:04;;;;;;;27.90;15.43;;;2.30;99.90;;;;;;5015253;28;20186;-87
2021/03/17 00:59:30;;;;;;;29.27;16.27;;;2.30;99.90;;;;;;5014079;28;20203;-87
2021/03/17 01:01:57;;;;;;;31.60;16.90;;;3.20;99.90;;;;;;5013747;28;20210;-87
2021/03/17 01:04:22;;;;;;;28.27;15.00;;;2.90;99.90;;;;;;5014724;28;20239;-87
2021/03/17 01:06:48;;;;;;;33.20;16.13;;;2.30;99.90;;;;;;5013319;28;20188;-87
2021/03/17 01:09:14;;;;;;;30.53;16.83;;;2.30;99.90;;;;;;5013837;28;20185;-87
2021/03/17 01:11:40;;;;;;;31.00;15.80;;;3.20;99.90;;;;;;5014764;28;20177;-87
2021/03/17 01:14:06;;;;;;;28.50;15.40;;;2.30;99.90;;;;;;5013812;28;20181;-87
2021/03/17 01:16:31;;;;;;;27.80;14.60;;;2.30;99.90;;;;;;5014420;28;20185;-87
2021/03/17 01:18:57;;;;;;;26.90;14.23;;;2.90;99.90;;;;;;5014609;28;20541;-87
2021/03/17 01:21:23;;;;;;;28.50;15.10;;;2.30;99.90;;;;;;5014295;28;20313;-87
2021/03/17 01:23:48;;;;;;;28.37;14.30;;;2.30;99.90;;;;;;5014110;28;20217;-87
2021/03/17 01:26:14;;;;;;;31.90;15.33;;;3.20;99.90;;;;;;5013568;28;20666;-87
2021/03/17 01:28:39;;;;;;;31.07;14.77;;;2.30;99.90;;;;;;5013294;28;20197;-87
2021/03/17 01:31:05;;;;;;;24.70;13.43;;;3.30;99.90;;;;;;4981282;28;20193;-87
2021/03/17 01:33:31;;;;;;;28.87;15.93;;;3.10;99.90;;;;;;5013418;28;20184;-87
2021/03/17 01:35:58;;;;;;;31.90;15.70;;;2.30;99.90;;;;;;5013259;28;20228;-87
2021/03/17 01:38:24;;;;;;;29.80;14.70;;;2.20;99.90;;;;;;5014401;28;20208;-87
2021/03/17 01:40:51;;;;;;;27.63;15.60;;;2.50;99.90;;;;;;5013236;28;20192;-88
2021/03/17 01:43:18;;;;;;;28.07;15.17;;;2.30;99.90;;;;;;5014047;28;20267;-87
2021/03/17 01:45:45;;;;;;;33.27;15.53;;;2.30;99.90;;;;;;5012969;28;20263;-87
2021/03/17 01:48:11;;;;;;;35.47;17.30;;;2.40;99.90;;;;;;5014921;28;20209;-86
2021/03/17 01:50:43;;;;;;;32.67;16.70;;;3.50;99.90;;;;;;5014116;28;20181;-87
2021/03/17 01:53:15;;;;;;;32.93;16.23;;;2.10;99.90;;;;;;5014537;28;20698;-87
2021/03/17 01:55:41;;;;;;;29.23;16.17;;;2.20;99.90;;;;;;5014261;28;20253;-86
2021/03/17 01:58:08;;;;;;;30.17;16.40;;;2.10;99.90;;;;;;5013936;28;20178;-86
2021/03/17 02:00:35;;;;;;;31.90;16.60;;;2.60;99.90;;;;;;5013066;28;20212;-85
2021/03/17 02:03:01;;;;;;;33.20;16.27;;;3.00;99.90;;;;;;5012980;28;20263;-86
2021/03/17 02:05:31;;;;;;;29.73;15.83;;;2.00;99.90;;;;;;5013324;28;20211;-86
2021/03/17 02:08:02;;;;;;;29.33;16.83;;;2.40;99.90;;;;;;5013992;28;20199;-86
2021/03/17 02:10:28;;;;;;;35.63;17.30;;;2.40;99.90;;;;;;5014033;28;20160;-86
2021/03/17 02:13:09;;;;;;;30.17;16.37;;;2.70;99.90;;;;;;5012465;28;20647;-87
2021/03/17 02:15:53;;;;;;;29.67;15.50;;;1.80;99.90;;;;;;5013699;28;20233;-87
2021/03/17 02:18:39;;;;;;;35.63;18.13;;;1.80;99.90;;;;;;5012862;28;20520;-87
2021/03/17 02:21:15;;;;;;;41.73;21.63;;;2.70;99.90;;;;;;5012989;28;20201;-87
2021/03/17 02:24:07;;;;;;;44.53;21.13;;;2.60;99.90;;;;;;5013827;28;20277;-87
2021/03/17 02:27:07;;;;;;;42.07;20.43;;;1.70;99.90;;;;;;5002602;28;20255;-87
2021/03/17 02:29:38;;;;;;;35.23;18.03;;;1.70;99.90;;;;;;5012555;28;20216;-86
2021/03/17 02:32:07;;;;;;;35.37;18.20;;;1.70;99.90;;;;;;5013357;28;20648;-87
2021/03/17 02:34:41;;;;;;;33.43;17.37;;;2.80;99.90;;;;;;5013049;28;20181;-86
2021/03/17 02:37:09;;;;;;;35.23;16.90;;;2.30;99.90;;;;;;5013424;28;20171;-86
2021/03/17 02:39:42;;;;;;;37.27;19.70;;;1.70;99.90;;;;;;5013352;28;20181;-86
2021/03/17 02:42:31;;;;;;;37.20;17.03;;;1.70;99.90;;;;;;5013246;28;20201;-86
2021/03/17 02:45:02;;;;;;;31.80;17.50;;;1.70;99.90;;;;;;5013439;28;20173;-86
2021/03/17 02:47:32;;;;;;;32.50;17.23;;;1.70;99.90;;;;;;5013576;28;20174;-86
2021/03/17 02:50:01;;;;;;;29.43;16.20;;;1.80;99.90;;;;;;5013446;28;20199;-86
2021/03/17 02:52:35;;;;;;;32.00;15.87;;;1.70;99.90;;;;;;5011914;28;20189;-86
2021/03/17 02:55:03;;;;;;;32.07;18.60;;;1.70;99.90;;;;;;5013272;28;20195;-86
2021/03/17 02:57:33;;;;;;;29.93;16.23;;;1.70;99.90;;;;;;5013397;28;20177;-86
2021/03/17 03:00:01;;;;;;;33.87;15.90;;;2.60;99.90;;;;;;5013105;28;20181;-86
2021/03/17 03:02:28;;;;;;;36.77;15.67;;;1.70;99.90;;;;;;5013160;28;20201;-86
2021/03/17 03:04:56;;;;;;;28.83;15.63;;;1.70;99.90;;;;;;5012051;28;20288;-85
2021/03/17 03:07:22;;;;;;;30.33;16.47;;;1.60;99.90;;;;;;5013147;28;20188;-86
2021/03/17 03:09:51;;;;;;;30.20;17.03;;;2.40;99.90;;;;;;5012003;28;20185;-84
2021/03/17 03:12:18;;;;;;;34.13;15.80;;;1.60;99.90;;;;;;5012961;28;20656;-86
2021/03/17 03:14:44;;;;;;;32.20;16.40;;;1.70;99.90;;;;;;5012140;28;20182;-86
2021/03/17 03:17:12;;;;;;;30.73;15.13;;;2.00;99.90;;;;;;5012982;28;20196;-86
2021/03/17 03:19:51;;;;;;;38.37;16.43;;;2.60;99.90;;;;;;5011731;28;20285;-86
2021/03/17 03:22:18;;;;;;;31.87;17.27;;;2.40;99.90;;;;;;5013206;28;20193;-87
2021/03/17 03:24:44;;;;;;;32.23;18.20;;;1.50;99.90;;;;;;5011868;28;20193;-86
2021/03/17 03:27:12;;;;;;;29.30;16.13;;;1.60;99.90;;;;;;5012554;28;20548;-86
2021/03/17 03:29:38;;;;;;;33.40;16.03;;;2.40;99.90;;;;;;5013129;28;20184;-87
2021/03/17 03:32:05;;;;;;;37.97;17.27;;;1.50;99.90;;;;;;5012626;28;20196;-87
2021/03/17 03:34:31;;;;;;;31.43;17.53;;;1.40;99.90;;;;;;5013032;28;20182;-85
2021/03/17 03:36:57;;;;;;;37.50;17.90;;;1.40;99.90;;;;;;5012793;28;20573;-85
2021/03/17 03:39:22;;;;;;;37.60;18.80;;;1.80;99.90;;;;;;5011572;28;20190;-86
2021/03/17 03:41:48;;;;;;;33.20;18.70;;;1.30;99.90;;;;;;5011729;28;20642;-86
2021/03/17 03:44:14;;;;;;;36.00;17.03;;;2.10;99.90;;;;;;5012210;28;20562;-86
2021/03/17 03:46:40;;;;;;;31.63;16.53;;;1.30;99.90;;;;;;5015392;28;20189;-86
2021/03/17 03:49:07;;;;;;;35.47;17.60;;;1.30;99.90;;;;;;5015117;28;20543;-86
2021/03/17 03:51:36;;;;;;;31.30;18.63;;;2.00;99.90;;;;;;5015294;28;20192;-86
2021/03/17 03:54:19;;;;;;;33.03;16.70;;;2.20;99.90;;;;;;5016261;28;20703;-86
2021/03/17 03:56:55;;;;;;;34.40;17.63;;;1.20;99.90;;;;;;5016156;28;20196;-85
2021/03/17 03:59:42;;;;;;;36.70;17.43;;;1.30;99.90;;;;;;5016393;28;20255;-88
2021/03/17 04:02:13;;;;;;;35.70;20.63;;;1.40;99.90;;;;;;5013841;28;20431;-87
2021/03/17 04:04:45;;;;;;;34.23;19.90;;;1.20;99.90;;;;;;5015143;28;20284;-87
2021/03/17 04:07:11;;;;;;;35.37;16.30;;;1.60;99.90;;;;;;5016070;28;20169;-88
2021/03/17 04:09:41;;;;;;;36.73;18.13;;;1.90;99.90;;;;;;5016172;28;20178;-88
2021/03/17 04:12:08;;;;;;;35.37;18.40;;;1.00;99.90;;;;;;5015944;28;20181;-88
2021/03/17 04:14:35;;;;;;;32.23;16.63;;;1.00;99.90;;;;;;5016156;28;20653;-88
2021/03/17 04:17:11;;;;;;;34.70;16.73;;;1.00;99.90;;;;;;5016083;28;20177;-87
2021/03/17 04:19:40;;;;;;;37.77;18.33;;;1.00;99.90;;;;;;5016384;28;20169;-88
2021/03/17 04:22:08;;;;;;;32.63;17.23;;;1.20;99.90;;;;;;5015353;28;20241;-89
2021/03/17 04:24:35;;;;;;;34.80;17.70;;;1.00;99.90;;;;;;5014427;28;20188;-87
2021/03/17 04:27:02;;;;;;;36.10;19.27;;;0.90;99.90;;;;;;5014401;28;20177;-89
2021/03/17 04:29:31;;;;;;;37.13;18.17;;;0.90;99.90;;;;;;5015845;28;20180;-89
2021/03/17 04:31:57;;;;;;;35.30;19.10;;;1.00;99.90;;;;;;5015690;28;20180;-89
2021/03/17 04:34:25;;;;;;;36.87;17.37;;;0.90;99.90;;;;;;5015576;28;20184;-89
2021/03/17 04:36:53;;;;;;;37.67;18.43;;;0.90;99.90;;;;;;5015677;28;20176;-89
2021/03/17 04:39:20;;;;;;;38.03;18.10;;;0.90;99.90;;;;;;5015301;28;20205;-89
2021/03/17 04:41:46;;;;;;;34.17;18.07;;;2.20;99.90;;;;;;5015561;28;20226;-89
2021/03/17 04:44:14;;;;;;;37.30;17.67;;;0.90;99.90;;;;;;5015253;28;20181;-90
2021/03/17 04:46:41;;;;;;;40.27;20.87;;;0.90;99.90;;;;;;4997907;28;20216;-89
2021/03/17 04:49:08;;;;;;;32.80;19.13;;;0.80;99.90;;;;;;5015204;28;20216;-89
2021/03/17 04:51:35;;;;;;;32.40;18.07;;;0.80;99.90;;;;;;5014434;28;20184;-89
2021/03/17 04:54:00;;;;;;;36.57;19.33;;;0.80;99.90;;;;;;5015283;28;20176;-89
2021/03/17 04:56:28;;;;;;;31.83;16.60;;;0.80;99.90;;;;;;5013082;28;20181;-89
2021/03/17 04:58:53;;;;;;;33.80;19.23;;;0.80;99.90;;;;;;5015228;28;20177;-89
2021/03/17 05:01:20;;;;;;;34.23;18.57;;;0.80;99.90;;;;;;5013811;28;20191;-90
2021/03/17 05:03:47;;;;;;;39.13;16.80;;;1.60;99.90;;;;;;5013641;28;20263;-90
2021/03/17 05:06:13;;;;;;;31.60;17.17;;;1.50;99.90;;;;;;5014907;28;20181;-89
2021/03/17 05:08:43;;;;;;;32.17;16.27;;;2.00;99.90;;;;;;4997431;28;20575;-89
2021/03/17 05:11:09;;;;;;;35.43;18.73;;;1.70;99.90;;;;;;5014646;28;20177;-88
2021/03/17 05:13:37;;;;;;;33.77;18.17;;;1.50;99.90;;;;;;5012536;28;20197;-88
2021/03/17 05:16:04;;;;;;;33.03;17.60;;;2.00;99.90;;;;;;5030140;28;20185;-89
2021/03/17 05:18:31;;;;;;;35.57;18.23;;;0.90;99.90;;;;;;5023523;28;20197;-88
2021/03/17 05:20:58;;;;;;;33.13;17.83;;;2.00;99.90;;;;;;5011861;28;20720;-87
2021/03/17 05:23:24;;;;;;;34.87;18.33;;;0.90;99.90;;;;;;5029651;28;20251;-88
2021/03/17 05:25:52;;;;;;;36.23;18.40;;;1.80;99.90;;;;;;5032357;28;20525;-90
2021/03/17 05:28:18;;;;;;;34.87;18.93;;;1.50;99.90;;;;;;5032278;28;20243;-89
2021/03/17 05:30:48;;;;;;;33.53;18.30;;;1.10;99.90;;;;;;5032639;28;20187;-89
2021/03/17 05:33:16;;;;;;;40.50;20.20;;;2.00;99.90;;;;;;5031084;28;20218;-90
2021/03/17 05:35:42;;;;;;;40.50;20.37;;;2.20;99.90;;;;;;5031985;28;20192;-89
2021/03/17 05:38:08;;;;;;;35.33;19.37;;;1.30;99.90;;;;;;5032231;28;20185;-86
2021/03/17 05:40:35;;;;;;;37.33;20.20;;;1.20;99.90;;;;;;5031204;28;20527;-89
2021/03/17 05:43:04;;;;;;;37.07;19.00;;;1.20;99.90;;;;;;5032170;28;20215;-89
2021/03/17 05:45:34;;;;;;;36.00;18.07;;;1.30;99.90;;;;;;5033451;28;20272;-90
2021/03/17 05:48:01;;;;;;;34.30;18.80;;;1.30;99.90;;;;;;5039571;28;20244;-89
2021/03/17 05:50:27;;;;;;;34.30;17.83;;;1.40;99.90;;;;;;5034543;28;20645;-89
2021/03/17 05:52:53;;;;;;;30.10;17.60;;;1.60;99.90;;;;;;5032360;28;20195;-90
2021/03/17 05:55:19;;;;;;;33.93;17.93;;;1.50;99.90;;;;;;5033848;28;20273;-90
2021/03/17 05:57:45;;;;;;;33.83;19.17;;;2.00;99.90;;;;;;5035809;28;20215;-89
2021/03/17 06:00:14;;;;;;;39.73;20.73;;;1.60;99.90;;;;;;5034496;28;20190;-90
2021/03/17 06:02:40;;;;;;;32.93;19.13;;;1.60;99.90;;;;;;5037188;28;20248;-89
2021/03/17 06:05:07;;;;;;;33.57;20.20;;;1.60;99.90;;;;;;5047530;28;20274;-85
2021/03/17 06:08:15;;;;;;;35.70;18.03;;;1.60;99.90;;;;;;5026979;28;20286;-86
2021/03/17 06:10:42;;;;;;;35.87;18.00;;;1.60;99.90;;;;;;5030135;28;20671;-85
2021/03/17 06:13:10;;;;;;;32.27;16.87;;;1.60;99.90;;;;;;5041260;28;20208;-91
2021/03/17 06:15:38;;;;;;;33.30;17.00;;;1.60;99.90;;;;;;5026252;28;20203;-88
2021/03/17 06:18:34;;;;;;;34.27;18.13;;;1.60;99.90;;;;;;5032750;28;20185;-86
2021/03/17 06:21:01;;;;;;;30.77;14.23;;;1.60;99.90;;;;;;5006323;28;20192;-86
2021/03/17 06:23:27;;;;;;;34.17;16.03;;;1.70;99.90;;;;;;5032963;28;20298;-87
2021/03/17 06:25:52;;;;;;;34.63;17.73;;;3.30;99.90;;;;;;5034641;28;20728;-86
2021/03/17 06:28:18;;;;;;;37.20;18.77;;;1.70;99.90;;;;;;5033202;28;20548;-91
2021/03/17 06:30:45;;;;;;;163.20;51.57;;;1.70;99.90;;;;;;5035172;28;20669;-91
2021/03/17 06:33:10;;;;;;;36.37;19.77;;;2.50;99.90;;;;;;5031418;28;20191;-88
2021/03/17 06:35:36;;;;;;;34.13;18.00;;;1.70;99.90;;;;;;5028659;28;20208;-89
2021/03/17 06:38:03;;;;;;;32.83;16.40;;;2.10;99.90;;;;;;5030844;28;20184;-89
2021/03/17 06:40:32;;;;;;;32.90;18.50;;;1.70;99.90;;;;;;5012552;28;20198;-88
2021/03/17 06:43:11;;;;;;;33.70;19.57;;;1.70;99.90;;;;;;5028762;28;20673;-87
2021/03/17 06:45:40;;;;;;;37.57;19.87;;;1.60;99.90;;;;;;5028553;28;20764;-88
2021/03/17 06:48:20;;;;;;;37.90;17.13;;;2.40;99.90;;;;;;5029094;28;20472;-86
2021/03/17 06:50:59;;;;;;;32.50;18.23;;;1.60;99.90;;;;;;5029351;28;20184;-86
2021/03/17 06:53:56;;;;;;;30.93;17.93;;;1.50;99.90;;;;;;5028834;28;20215;-86
2021/03/17 06:56:27;;;;;;;31.00;17.53;;;1.60;99.90;;;;;;5027206;28;20187;-86
2021/03/17 06:59:01;;;;;;;29.57;18.00;;;1.50;99.90;;;;;;5028489;28;20176;-86
2021/03/17 07:01:28;;;;;;;31.50;16.37;;;1.50;99.90;;;;;;5026548;28;20188;-85
2021/03/17 07:03:58;;;;;;;42.00;17.43;;;2.50;99.90;;;;;;5023969;28;20596;-88
2021/03/17 07:06:24;;;;;;;30.57;19.13;;;1.60;99.90;;;;;;5027968;28;20257;-86
2021/03/17 07:08:51;;;;;;;36.10;17.37;;;1.70;99.90;;;;;;5028819;28;20172;-86
2021/03/17 07:11:30;;;;;;;37.00;17.37;;;1.70;99.90;;;;;;5029172;28;20207;-87
2021/03/17 07:13:56;;;;;;;32.63;18.07;;;2.20;99.90;;;;;;5030618;28;20196;-87
2021/03/17 07:16:35;;;;;;;35.60;17.20;;;1.80;99.90;;;;;;5028568;28;20278;-86
2021/03/17 07:19:01;;;;;;;30.07;15.93;;;1.80;99.90;;;;;;5031254;28;20237;-86
2021/03/17 07:21:33;;;;;;;32.97;15.90;;;1.70;99.90;;;;;;5035167;28;20629;-88
2021/03/17 07:23:59;;;;;;;31.43;16.63;;;1.80;99.90;;;;;;5035137;28;20200;-87
2021/03/17 07:26:29;;;;;;;29.07;16.40;;;2.00;99.90;;;;;;5017820;28;20279;-89
2021/03/17 07:29:11;;;;;;;34.37;17.60;;;2.40;99.90;;;;;;5036014;28;20184;-90
2021/03/17 07:31:47;;;;;;;34.93;18.93;;;2.00;99.90;;;;;;5035489;28;20182;-89
2021/03/17 07:34:14;;;;;;;33.93;16.43;;;2.00;99.90;;;;;;5034519;28;20176;-87
2021/03/17 07:36:59;;;;;;;34.60;18.97;;;1.90;99.90;;;;;;5035584;28;20181;-86
2021/03/17 07:39:30;;;;;;;33.87;20.53;;;1.90;99.90;;;;;;5031491;28;20196;-85
2021/03/17 07:41:59;;;;;;;38.20;19.30;;;1.80;99.90;;;;;;5027528;28;20538;-87
2021/03/17 07:44:26;;;;;;;31.87;18.47;;;3.00;99.90;;;;;;5026147;28;20645;-89
2021/03/17 07:46:58;;;;;;;42.33;20.33;;;1.80;99.90;;;;;;5003622;28;20188;-86
2021/03/17 07:49:25;;;;;;;32.57;20.93;;;1.80;99.90;;;;;;5027063;28;20165;-88
2021/03/17 07:51:55;;;;;;;31.40;16.37;;;1.80;99.90;;;;;;5026817;28;20203;-86
2021/03/17 07:54:32;;;;;;;30.43;18.37;;;2.50;99.90;;;;;;5032239;28;20181;-85
2021/03/17 07:57:02;;;;;;;26.53;15.77;;;1.70;99.90;;;;;;5026349;28;20165;-85
2021/03/17 07:59:27;;;;;;;31.93;18.00;;;1.70;99.90;;;;;;5023010;28;20278;-84
2021/03/17 08:01:58;;;;;;;30.73;16.03;;;2.80;99.90;;;;;;5022219;28;20670;-86
2021/03/17 08:04:32;;;;;;;33.47;16.67;;;2.30;99.90;;;;;;5022424;28;20250;-87
2021/03/17 08:07:03;;;;;;;31.17;17.80;;;1.60;99.90;;;;;;5030170;28;20222;-85
2021/03/17 08:09:29;;;;;;;34.77;18.57;;;1.50;99.90;;;;;;5035221;28;20256;-86
2021/03/17 08:11:57;;;;;;;26.73;17.50;;;1.30;99.90;;;;;;5033667;28;20179;-87
2021/03/17 08:14:24;;;;;;;29.73;16.63;;;1.30;99.90;;;;;;5033641;28;20264;-85
2021/03/17 08:16:51;;;;;;;24.93;14.43;;;1.40;99.90;;;;;;5034762;28;20207;-84
2021/03/17 08:19:24;;;;;;;31.93;16.80;;;1.30;99.90;;;;;;5033600;28;20549;-85
2021/03/17 08:21:52;;;;;;;29.73;17.30;;;1.20;99.90;;;;;;5031368;28;20260;-85
2021/03/17 08:24:33;;;;;;;33.50;18.47;;;2.30;99.90;;;;;;5030631;28;20228;-86
2021/03/17 08:27:00;;;;;;;30.70;17.10;;;2.00;99.90;;;;;;5034814;28;20180;-85
2021/03/17 08:29:36;;;;;;;37.13;18.50;;;1.60;99.90;;;;;;5034758;28;20236;-85
2021/03/17 08:32:02;;;;;;;29.77;14.67;;;1.10;99.90;;;;;;5032027;28;20188;-85
2021/03/17 08:34:30;;;;;;;24.60;14.10;;;1.00;99.90;;;;;;5034453;28;20180;-86
2021/03/17 08:37:00;;;;;;;23.20;15.17;;;1.00;99.90;;;;;;5034298;28;20177;-85
2021/03/17 08:39:37;;;;;;;32.67;15.63;;;1.00;99.90;;;;;;5033248;28;20198;-85
2021/03/17 08:42:10;;;;;;;24.00;14.20;;;1.00;99.90;;;;;;5033157;28;20210;-85
2021/03/17 08:44:39;;;;;;;29.50;16.67;;;1.00;99.90;;;;;;5034158;28;20169;-85
2021/03/17 08:47:29;;;;;;;21.83;11.87;;;1.00;99.90;;;;;;5034110;28;20646;-85
2021/03/17 08:50:18;;;;;;;26.67;15.43;;;0.90;99.90;;;;;;5032810;28;20605;-85
2021/03/17 08:52:49;;;;;;;29.57;17.30;;;0.90;99.90;;;;;;5034141;28;20289;-84
2021/03/17 08:55:36;;;;;;;28.43;14.83;;;1.00;99.90;;;;;;5025603;28;20168;-85
2021/03/17 08:58:21;;;;;;;27.90;16.57;;;1.00;99.90;;;;;;5022500;28;20165;-86
2021/03/17 09:01:01;;;;;;;27.37;17.43;;;2.10;99.90;;;;;;5032836;28;20179;-84
2021/03/17 09:03:33;;;;;;;25.60;15.60;;;0.90;99.90;;;;;;5012324;28;20243;-84
2021/03/17 09:06:24;;;;;;;25.00;17.07;;;1.00;99.90;;;;;;5012558;28;20185;-86
2021/03/17 09:09:02;;;;;;;28.43;16.77;;;0.90;99.90;;;;;;5012577;28;20172;-86
2021/03/17 09:11:30;;;;;;;25.67;15.20;;;0.90;99.90;;;;;;5012899;28;20700;-83
2021/03/17 09:14:00;;;;;;;29.77;15.47;;;2.20;99.90;;;;;;5012117;28;20231;-86
2021/03/17 09:16:26;;;;;;;24.77;14.50;;;1.00;99.90;;;;;;5012995;28;20180;-84
2021/03/17 09:19:04;;;;;;;23.77;13.57;;;1.70;99.90;;;;;;5012039;28;20602;-86
2021/03/17 09:21:31;;;;;;;24.13;13.53;;;1.10;99.90;;;;;;5014820;28;20231;-86
2021/03/17 09:23:57;;;;;;;25.70;15.30;;;1.50;99.90;;;;;;5014200;28;20194;-84
2021/03/17 09:26:30;;;;;;;28.80;14.53;;;1.20;99.90;;;;;;5014154;28;20250;-85
2021/03/17 09:28:56;;;;;;;24.90;15.53;;;1.40;99.90;;;;;;5012870;28;20239;-85
2021/03/17 09:31:23;;;;;;;25.70;15.43;;;1.30;99.90;;;;;;5012908;28;20185;-85
2021/03/17 09:33:49;;;;;;;26.13;15.40;;;1.30;99.90;;;;;;5015488;28;20219;-86
2021/03/17 09:36:25;;;;;;;31.93;16.83;;;1.20;99.90;;;;;;4996843;28;20200;-86
2021/03/17 09:38:53;;;;;;;24.27;13.23;;;1.30;99.90;;;;;;5013867;28;20262;-86
2021/03/17 09:41:20;;;;;;;24.80;16.03;;;1.30;99.90;;;;;;5012861;28;20209;-86
2021/03/17 09:43:57;;;;;;;23.00;14.00;;;3.00;99.90;;;;;;5013491;28;20651;-87
2021/03/17 09:46:37;;;;;;;22.40;12.70;;;1.30;99.90;;;;;;5013836;28;20184;-88
2021/03/17 09:49:13;;;;;;;27.93;14.70;;;1.30;99.90;;;;;;5014019;28;20173;-87
2021/03/17 09:51:50;;;;;;;23.07;13.47;;;1.30;99.90;;;;;;5012915;28;20671;-87
2021/03/17 09:54:24;;;;;;;27.03;15.27;;;1.40;99.90;;;;;;5012991;28;20634;-90
2021/03/17 09:56:52;;;;;;;26.03;15.53;;;2.70;99.90;;;;;;5014071;28;20164;-87
2021/03/17 09:59:40;;;;;;;27.63;15.00;;;1.30;99.90;;;;;;5013961;28;20177;-88
2021/03/17 10:02:09;;;;;;;28.70;16.50;;;1.40;99.90;;;;;;5013510;28;20188;-87
2021/03/17 10:04:42;;;;;;;25.47;14.90;;;1.50;99.90;;;;;;5012392;28;20233;-88
2021/03/17 10:07:16;;;;;;;26.90;15.17;;;1.50;99.90;;;;;;5013522;28;20192;-88
2021/03/17 10:09:43;;;;;;;30.03;14.43;;;1.50;99.90;;;;;;5013556;28;20613;-91
2021/03/17 10:12:10;;;;;;;23.00;12.03;;;2.90;99.90;;;;;;4995569;28;20183;-88
2021/03/17 10:14:38;;;;;;;24.03;12.83;;;3.20;99.90;;;;;;5013878;28;20173;-86
2021/03/17 10:17:07;;;;;;;24.83;13.40;;;1.70;99.90;;;;;;5012290;28;20544;-87
2021/03/17 10:19:34;;;;;;;22.60;14.37;;;1.60;99.90;;;;;;5014585;28;20171;-88
2021/03/17 10:22:00;;;;;;;25.83;15.10;;;2.70;99.90;;;;;;5013709;28;20185;-87
2021/03/17 10:24:48;;;;;;;22.23;12.10;;;2.50;99.90;;;;;;4995779;28;20211;-87
2021/03/17 10:27:18;;;;;;;25.50;14.10;;;1.50;99.90;;;;;;5013272;28;20190;-89
2021/03/17 10:29:47;;;;;;;22.67;12.20;;;1.60;99.90;;;;;;5012402;28;20191;-87
2021/03/17 10:32:22;;;;;;;27.43;15.30;;;1.60;99.90;;;;;;5011984;28;20326;-87
2021/03/17 10:34:49;;;;;;;25.50;15.97;;;1.70;99.90;;;;;;5013388;28;20175;-87
2021/03/17 10:37:20;;;;;;;25.30;17.70;;;1.80;99.90;;;;;;5013463;28;20169;-87
2021/03/17 10:39:46;;;;;;;25.33;13.10;;;1.70;99.90;;;;;;5011829;28;20188;-88
2021/03/17 10:42:26;;;;;;;29.97;14.37;;;2.00;99.90;;;;;;5014248;28;20192;-88
2021/03/17 10:45:04;;;;;;;26.73;15.93;;;1.70;99.90;;;;;;5022512;28;20256;-85
2021/03/17 10:47:29;;;;;;;23.13;13.83;;;1.60;99.90;;;;;;5024283;28;20178;-87
2021/03/17 10:49:55;;;;;;;23.57;13.73;;;2.60;99.90;;;;;;5030650;28;20283;-88
2021/03/17 10:52:49;;;;;;;25.40;13.43;;;1.80;99.90;;;;;;5031912;28;20216;-87
2021/03/17 10:55:24;;;;;;;24.10;12.70;;;1.70;99.90;;;;;;5034866;28;20512;-89
2021/03/17 10:57:51;;;;;;;23.90;13.27;;;2.20;99.90;;;;;;5033243;28;20251;-87
2021/03/17 11:00:17;;;;;;;25.77;14.90;;;2.80;99.90;;;;;;5033065;28;20699;-87
2021/03/17 11:02:43;;;;;;;23.07;13.13;;;1.80;99.90;;;;;;5037188;28;20175;-87
2021/03/17 11:05:10;;;;;;;22.10;13.73;;;1.90;99.90;;;;;;5036114;28;20169;-85
2021/03/17 11:07:58;;;;;;;27.13;14.13;;;1.80;99.90;;;;;;5036479;28;20184;-86
2021/03/17 11:10:49;;;;;;;25.67;16.03;;;1.80;99.90;;;;;;5035121;28;20529;-88
2021/03/17 11:13:17;;;;;;;27.03;12.83;;;1.80;99.90;;;;;;5036487;28;20209;-86
2021/03/17 11:15:47;;;;;;;32.70;16.33;;;2.10;99.90;;;;;;5036149;28;20199;-89
2021/03/17 11:18:21;;;;;;;30.63;16.57;;;2.80;99.90;;;;;;5034545;28;20538;-91
2021/03/17 11:20:48;;;;;;;29.93;16.00;;;1.80;99.90;;;;;;5036178;28;20179;-87
2021/03/17 11:23:32;;;;;;;27.17;14.23;;;1.90;99.90;;;;;;5018480;28;20188;-86
2021/03/17 11:25:58;;;;;;;25.07;13.80;;;1.90;99.90;;;;;;5035687;28;20165;-86
2021/03/17 11:28:26;;;;;;;31.20;16.10;;;1.90;99.90;;;;;;5035832;28;20267;-86
2021/03/17 11:30:59;;;;;;;29.63;16.70;;;1.90;99.90;;;;;;5026824;28;20216;-87
2021/03/17 11:33:25;;;;;;;25.80;12.43;;;2.00;99.90;;;;;;5024722;28;20200;-87
2021/03/17 11:35:53;;;;;;;28.83;13.63;;;2.30;99.90;;;;;;5025242;28;20223;-88
2021/03/17 11:38:20;;;;;;;26.07;12.67;;;2.90;99.90;;;;;;5022565;28;20173;-87
2021/03/17 11:40:47;;;;;;;25.67;14.80;;;2.30;99.90;;;;;;5032249;28;20192;-88
2021/03/17 11:43:16;;;;;;;24.13;13.73;;;2.20;99.90;;;;;;5029098;28;20192;-86
2021/03/17 11:45:44;;;;;;;42.00;19.50;;;2.30;99.90;;;;;;5029646;28;20224;-87
2021/03/17 11:48:10;;;;;;;29.30;13.30;;;2.20;99.90;;;;;;5023531;28;20187;-87
2021/03/17 11:50:39;;;;;;;27.40;13.93;;;2.20;99.90;;;;;;5024023;28;20204;-86
2021/03/17 11:53:05;;;;;;;26.57;15.03;;;2.30;99.90;;;;;;5029595;28;20661;-85
2021/03/17 11:55:31;;;;;;;28.30;16.63;;;2.20;99.90;;;;;;5023711;28;20187;-85
2021/03/17 11:57:56;;;;;;;27.50;17.13;;;2.30;99.90;;;;;;5025141;28;20181;-86
2021/03/17 12:00:23;;;;;;;37.67;22.90;;;2.30;99.90;;;;;;5022525;28;20762;-88
2021/03/17 12:02:49;;;;;;;27.23;14.97;;;2.40;99.90;;;;;;5028680;28;20208;-87
2021/03/17 12:05:16;;;;;;;29.87;16.13;;;2.90;99.90;;;;;;5024019;28;20219;-87
2021/03/17 12:07:43;;;;;;;31.60;16.93;;;2.60;99.90;;;;;;5006803;28;20192;-87
2021/03/17 12:10:09;;;;;;;23.33;11.97;;;3.40;99.90;;;;;;5026147;28;20192;-88
2021/03/17 12:12:35;;;;;;;31.43;14.50;;;2.70;99.90;;;;;;5032444;28;20221;-89
2021/03/17 12:15:04;;;;;;;23.97;14.80;;;2.70;99.90;;;;;;5028398;28;20196;-85
2021/03/17 12:17:29;;;;;;;28.70;14.53;;;2.60;99.90;;;;;;5016605;28;20181;-84
2021/03/17 12:19:55;;;;;;;24.97;13.73;;;2.70;99.90;;;;;;5007041;28;20180;-85
2021/03/17 12:22:21;;;;;;;26.03;16.60;;;2.70;99.90;;;;;;5027475;28;20219;-85
2021/03/17 12:24:46;;;;;;;26.97;14.40;;;2.60;99.90;;;;;;5033022;28;20206;-86
2021/03/17 12:27:12;;;;;;;28.67;14.13;;;3.60;99.90;;;;;;5024718;28;20199;-86
2021/03/17 12:29:39;;;;;;;26.90;15.23;;;3.00;99.90;;;;;;5024537;28;20188;-85
2021/03/17 12:32:04;;;;;;;25.40;13.20;;;2.80;99.90;;;;;;5022712;28;20269;-85
2021/03/17 12:34:30;;;;;;;26.50;15.40;;;2.70;99.90;;;;;;5024095;28;20271;-85
2021/03/17 12:36:56;;;;;;;25.83;17.03;;;3.30;99.90;;;;;;5024445;28;20276;-87
2021/03/17 12:39:22;;;;;;;29.07;14.40;;;2.80;99.90;;;;;;5023489;28;20173;-86
2021/03/17 12:41:48;;;;;;;23.27;12.57;;;2.80;99.90;;;;;;5024712;28;20192;-87
2021/03/17 12:44:14;;;;;;;31.77;13.73;;;3.10;99.90;;;;;;5024771;28;20215;-87
2021/03/17 12:46:40;;;;;;;23.83;12.77;;;2.90;99.90;;;;;;5022670;28;20188;-88
2021/03/17 12:49:05;;;;;;;20.53;12.67;;;3.10;99.90;;;;;;5025426;28;20701;-87